createdAt,value
2023-05-09T00:06:02.043Z,17.60
2023-05-09T00:16:02.128Z,16.60
2023-05-09T00:26:02.059Z,16.60
2023-05-09T00:36:02.046Z,16.60
2023-05-09T00:46:02.124Z,16.60
2023-05-09T00:56:02.179Z,16.90
2023-05-09T01:06:02.104Z,17.30
2023-05-09T01:16:02.147Z,17.70
2023-05-09T01:26:02.098Z,16.60
2023-05-09T01:36:02.105Z,17.40
2023-05-09T01:46:02.076Z,17.90
2023-05-09T01:56:02.106Z,18.20
2023-05-09T02:06:02.184Z,19.40
2023-05-09T02:16:02.107Z,17.50
2023-05-09T02:26:02.109Z,17.30
2023-05-09T02:36:02.129Z,18.90
2023-05-09T02:46:02.203Z,19.20
2023-05-09T02:56:02.093Z,18.70
2023-05-09T03:06:02.121Z,18.60
2023-05-09T03:16:02.161Z,18.50
2023-05-09T03:26:02.134Z,17.70
2023-05-09T03:36:02.120Z,19.30
2023-05-09T03:46:02.106Z,19.10
2023-05-09T03:56:02.126Z,19.60
2023-05-09T04:06:02.154Z,19.50
2023-05-09T04:16:02.228Z,16.50
2023-05-09T04:26:02.148Z,17.00
2023-05-09T04:36:02.206Z,14.90
2023-05-09T04:46:02.238Z,9.80
2023-05-09T04:56:02.155Z,5.10
2023-05-09T05:06:02.168Z,3.60
2023-05-09T05:16:02.225Z,3.50
2023-05-09T05:26:02.172Z,4.20
2023-05-09T05:36:02.256Z,4.40
2023-05-09T05:46:02.191Z,4.30
2023-05-09T05:56:02.182Z,5.00
2023-05-09T06:06:02.205Z,5.50
2023-05-09T06:16:15.122Z,5.40
2023-05-09T06:26:02.186Z,5.80
2023-05-09T06:36:02.314Z,6.40
2023-05-09T06:46:02.310Z,5.40
2023-05-09T06:56:02.209Z,6.20
2023-05-09T07:16:02.210Z,6.10
2023-05-09T07:26:02.214Z,6.30
2023-05-09T07:36:02.307Z,5.50
2023-05-09T07:46:02.277Z,5.10
2023-05-09T07:56:02.214Z,5.00
2023-05-09T08:06:02.245Z,4.50
2023-05-09T08:16:02.295Z,4.90
2023-05-09T08:26:02.255Z,4.70
2023-05-09T08:36:02.249Z,4.90
2023-05-09T08:46:02.276Z,4.50
2023-05-09T08:56:02.273Z,3.80
2023-05-09T09:06:02.352Z,4.50
2023-05-09T09:16:02.318Z,4.60
2023-05-09T09:26:02.329Z,4.30
2023-05-09T09:36:02.295Z,4.80
2023-05-09T09:46:02.289Z,4.10
2023-05-09T09:56:02.287Z,4.00
2023-05-09T10:06:02.260Z,3.40
2023-05-09T10:16:02.345Z,4.40
2023-05-09T10:26:02.266Z,3.90
2023-05-09T10:36:02.379Z,3.50
2023-05-09T10:46:02.293Z,3.20
2023-05-09T10:56:02.302Z,3.10
2023-05-09T11:06:02.284Z,3.70
2023-05-09T11:16:02.371Z,2.90
2023-05-09T11:26:02.329Z,2.90
2023-05-09T11:36:02.349Z,3.10
2023-05-09T11:46:02.357Z,3.20
2023-05-09T11:56:02.321Z,2.50
2023-05-09T12:06:02.355Z,3.20
2023-05-09T12:16:02.402Z,3.10
2023-05-09T12:26:02.347Z,2.90
2023-05-09T12:36:02.409Z,2.80
2023-05-09T12:46:02.487Z,2.70
2023-05-09T12:56:02.396Z,2.70
2023-05-09T13:06:02.366Z,2.90
2023-05-09T13:16:02.420Z,2.60
2023-05-09T13:26:02.405Z,3.30
2023-05-09T13:36:02.436Z,2.70
2023-05-09T13:46:02.399Z,3.10
2023-05-09T13:56:02.414Z,2.70
2023-05-09T14:06:02.412Z,2.60
2023-05-09T14:16:02.452Z,2.70
2023-05-09T14:26:02.453Z,2.80
2023-05-09T14:36:02.423Z,2.80
2023-05-09T14:46:02.390Z,2.70
2023-05-09T14:56:02.436Z,2.70
2023-05-09T15:06:02.447Z,2.80
2023-05-09T15:16:02.426Z,2.90
2023-05-09T15:26:02.430Z,2.50
2023-05-09T15:36:02.415Z,2.40
2023-05-09T15:46:02.502Z,3.30
2023-05-09T15:56:02.459Z,2.60
2023-05-09T16:06:02.442Z,2.80
2023-05-09T16:16:02.485Z,2.70
2023-05-09T16:26:02.476Z,2.60
2023-05-09T16:36:02.493Z,2.50
2023-05-09T16:56:02.492Z,2.80
2023-05-09T17:06:02.479Z,3.70
2023-05-09T17:16:02.503Z,3.90
2023-05-09T17:26:02.480Z,2.90
2023-05-09T17:36:02.480Z,3.30
2023-05-09T17:46:02.630Z,4.10
2023-05-09T17:56:02.565Z,3.30
2023-05-09T18:06:02.503Z,3.50
2023-05-09T18:16:02.539Z,3.50
2023-05-09T18:26:02.500Z,3.40
2023-05-09T18:36:02.603Z,3.80
2023-05-09T18:46:02.519Z,3.40
2023-05-09T18:56:02.521Z,4.10
2023-05-09T19:06:02.540Z,5.80
2023-05-09T19:16:02.543Z,3.50
2023-05-09T19:26:02.534Z,4.30
2023-05-09T19:36:02.543Z,4.60
2023-05-09T19:46:02.608Z,4.00
2023-05-09T19:56:02.674Z,4.40
2023-05-09T20:06:02.557Z,4.10
2023-05-09T20:16:02.592Z,4.30
2023-05-09T20:26:02.577Z,4.90
2023-05-09T20:36:02.562Z,4.20
2023-05-09T20:46:02.675Z,4.40
2023-05-09T20:56:02.547Z,4.70
2023-05-09T21:06:02.575Z,4.80
2023-05-09T21:16:02.586Z,5.20
2023-05-09T21:26:02.589Z,4.60
2023-05-09T21:36:02.580Z,6.30
2023-05-09T21:46:02.687Z,4.90
2023-05-09T21:56:02.729Z,5.10
2023-05-09T22:06:02.606Z,5.00
2023-05-09T22:16:02.614Z,5.50
2023-05-09T22:26:02.579Z,4.80
2023-05-09T22:36:02.600Z,5.10
2023-05-09T22:46:02.625Z,5.10
2023-05-09T22:56:02.820Z,5.20
2023-05-09T23:06:02.603Z,4.50
2023-05-09T23:16:02.740Z,4.80
2023-05-09T23:26:02.609Z,4.70
2023-05-09T23:36:02.634Z,5.10
2023-05-09T23:46:02.724Z,5.20
2023-05-09T23:56:02.707Z,5.00
